Time;durP1;ratioP1;P1;durP2;ratioP2;P2;SDS_P1;SDS_P2;PMS_P1;PMS_P2;Temp;Humidity;BMP_temperature;BMP_pressure;BME280_temperature;BME280_humidity;BME280_pressure;Samples;Min_cycle;Max_cycle;Signal;HPM_P1;HPM_P2
2022/11/21 00:02:23;;;;;;;;;3.50;2.50;;;;;11.10;60.71;100558.19;5073007;27;45294;-38
2022/11/21 00:04:48;;;;;;;;;14.50;4.00;;;;;11.11;60.42;100557.28;5076036;27;45476;-37
2022/11/21 00:07:14;;;;;;;;;4.50;3.75;;;;;11.08;60.72;100554.75;5077516;28;47938;-38
2022/11/21 00:09:39;;;;;;;;;4.75;2.00;;;;;11.08;60.63;100552.13;5064030;28;46954;-37
2022/11/21 00:12:05;;;;;;;;;7.25;3.00;;;;;11.03;60.54;100552.31;5082562;27;45551;-38
2022/11/21 00:14:30;;;;;;;;;2.75;1.00;;;;;11.04;60.72;100547.91;5081160;27;45383;-37
2022/11/21 00:16:55;;;;;;;;;2.75;2.75;;;;;11.03;60.62;100547.06;5072482;28;46594;-38
2022/11/21 00:19:21;;;;;;;;;3.50;2.00;;;;;11.05;60.70;100541.75;5080178;27;45393;-37
2022/11/21 00:21:46;;;;;;;;;2.75;2.00;;;;;11.06;61.07;100546.09;5078577;27;49620;-37
2022/11/21 00:24:12;;;;;;;;;4.00;2.00;;;;;11.07;60.60;100545.19;5081597;27;66630;-37
2022/11/21 00:26:37;;;;;;;;;5.25;1.25;;;;;11.08;60.59;100539.03;5082214;27;45339;-37
2022/11/21 00:29:03;;;;;;;;;2.25;2.00;;;;;11.10;60.93;100535.47;5076203;27;45277;-37
2022/11/21 00:31:28;;;;;;;;;5.00;2.00;;;;;11.10;60.45;100524.13;5061559;28;51173;-37
2022/11/21 00:33:53;;;;;;;;;8.00;3.00;;;;;11.13;60.54;100521.41;5079691;27;71793;-37
2022/11/21 00:36:19;;;;;;;;;7.25;1.00;;;;;11.15;60.98;100514.34;5082319;27;45450;-37
2022/11/21 00:38:44;;;;;;;;;3.50;3.00;;;;;11.15;60.48;100509.13;5081296;27;61442;-38
2022/11/21 00:41:09;;;;;;;;;2.50;1.00;;;;;11.14;60.59;100496.94;5081062;27;45495;-37
2022/11/21 00:43:35;;;;;;;;;5.50;1.75;;;;;11.17;60.80;100494.22;5074567;27;45383;-37
2022/11/21 00:46:01;;;;;;;;;4.50;1.25;;;;;11.18;60.62;100502.03;5077264;27;46301;-37
2022/11/21 00:48:27;;;;;;;;;6.50;2.75;;;;;11.19;60.70;100495.88;5077842;27;45414;-37
2022/11/21 00:50:53;;;;;;;;;1.25;1.25;;;;;11.20;60.82;100487.09;5080269;27;45253;-38
2022/11/21 00:53:18;;;;;;;;;3.00;1.50;;;;;11.22;60.84;100492.28;5077785;28;64169;-38
2022/11/21 00:55:43;;;;;;;;;2.00;2.00;;;;;11.26;60.62;100485.19;5077855;27;65853;-37
2022/11/21 00:58:09;;;;;;;;;6.50;3.00;;;;;11.27;60.73;100487.75;5075597;27;45533;-37
2022/11/21 01:00:34;;;;;;;;;3.00;2.00;;;;;11.28;60.86;100494.72;5077642;27;63338;-37
2022/11/21 01:03:00;;;;;;;;;3.25;2.00;;;;;11.29;60.40;100485.09;5080525;27;45195;-37
2022/11/21 01:05:25;;;;;;;;;2.50;1.50;;;;;11.29;60.62;100483.31;5076226;28;58106;-37
2022/11/21 01:07:50;;;;;;;;;3.75;2.75;;;;;11.32;60.72;100475.38;5074119;27;67409;-37
2022/11/21 01:10:16;;;;;;;;;3.00;1.25;;;;;11.35;60.62;100477.00;5072636;28;61050;-37
2022/11/21 01:12:42;;;;;;;;;5.75;2.00;;;;;11.34;60.68;100470.94;5078357;27;48039;-37
2022/11/21 01:15:08;;;;;;;;;6.00;1.00;;;;;11.33;60.74;100474.47;5077174;27;45443;-37
2022/11/21 01:17:33;;;;;;;;;8.00;3.00;;;;;11.32;60.55;100480.59;5074870;28;45649;-37
2022/11/21 01:19:58;;;;;;;;;5.00;2.00;;;;;11.32;60.68;100474.50;5074623;28;57440;-37
2022/11/21 01:22:24;;;;;;;;;4.25;2.00;;;;;11.32;60.77;100466.66;5074805;27;45532;-37
2022/11/21 01:24:49;;;;;;;;;7.25;2.25;;;;;11.29;60.59;100466.75;5073640;27;70447;-37
2022/11/21 01:27:14;;;;;;;;;5.50;2.00;;;;;11.26;60.69;100465.09;5069399;27;65845;-40
2022/11/21 01:29:40;;;;;;;;;1.75;1.00;;;;;11.24;60.81;100458.19;5086423;27;69457;-37
2022/11/21 01:32:05;;;;;;;;;5.75;2.00;;;;;11.23;60.70;100464.34;5078614;27;45287;-37
2022/11/21 01:34:31;;;;;;;;;6.25;2.50;;;;;11.21;60.59;100467.03;5052895;28;46188;-37
2022/11/21 01:36:56;;;;;;;;;5.50;2.25;;;;;11.21;61.07;100459.16;5074789;27;45480;-37
2022/11/21 01:39:21;;;;;;;;;5.00;3.00;;;;;11.21;60.72;100456.56;5081094;27;50245;-38
2022/11/21 01:41:47;;;;;;;;;4.50;3.00;;;;;11.20;60.79;100441.72;5079384;27;61475;-37
2022/11/21 01:44:19;;;;;;;;;5.00;3.75;;;;;11.18;61.22;100443.56;5074398;28;51545;-37
2022/11/21 01:46:46;;;;;;;;;5.50;2.00;;;;;11.16;61.24;100433.13;5075875;28;45402;-37
2022/11/21 01:49:17;;;;;;;;;8.00;3.00;;;;;11.17;61.09;100429.59;5063095;28;45309;-38
2022/11/21 01:51:48;;;;;;;;;4.50;2.50;;;;;11.20;60.90;100418.16;5078585;27;45224;-38
2022/11/21 01:54:17;;;;;;;;;7.50;2.00;;;;;11.17;61.24;100408.66;5072760;28;45413;-37
2022/11/21 01:56:50;;;;;;;;;5.00;3.75;;;;;11.19;61.08;100398.97;5080724;27;45757;-37
2022/11/21 01:59:37;;;;;;;;;7.25;3.00;;;;;11.19;61.25;100403.34;5069986;28;45253;-37
2022/11/21 02:02:05;;;;;;;;;5.00;2.50;;;;;11.19;61.19;100408.56;5090817;27;45311;-37
2022/11/21 02:04:31;;;;;;;;;3.25;2.75;;;;;11.17;61.12;100399.91;5075478;27;46207;-37
2022/11/21 02:07:02;;;;;;;;;3.75;2.75;;;;;11.14;61.08;100400.06;5074171;28;45349;-37
2022/11/21 02:09:29;;;;;;;;;5.00;3.00;;;;;11.16;61.21;100404.31;5059480;27;45270;-37
2022/11/21 02:11:59;;;;;;;;;5.25;2.00;;;;;11.15;61.37;100409.59;5082341;27;45359;-37
2022/11/21 02:14:25;;;;;;;;;3.50;2.00;;;;;11.15;61.00;100413.06;5076945;27;46390;-37
2022/11/21 02:16:50;;;;;;;;;5.75;2.00;;;;;11.15;61.15;100402.59;5075337;27;45792;-37
2022/11/21 02:19:24;;;;;;;;;5.50;3.00;;;;;11.13;61.43;100393.94;5082070;27;45247;-37
2022/11/21 02:21:49;;;;;;;;;5.25;3.00;;;;;11.15;61.33;100399.97;5075964;27;45345;-38
2022/11/21 02:24:42;;;;;;;;;4.50;3.00;;;;;11.16;61.17;100396.47;5080467;27;46310;-37
2022/11/21 02:27:08;;;;;;;;;6.25;3.00;;;;;11.15;61.00;100388.66;5069008;27;45364;-37
2022/11/21 02:29:34;;;;;;;;;3.75;2.00;;;;;11.14;61.08;100379.94;5078420;28;47358;-37
2022/11/21 02:32:04;;;;;;;;;4.00;4.00;;;;;11.13;61.23;100374.75;5072773;27;63132;-38
2022/11/21 02:34:29;;;;;;;;;6.00;4.00;;;;;11.16;61.10;100374.66;5069913;28;45692;-37
2022/11/21 02:36:55;;;;;;;;;2.75;1.50;;;;;11.14;61.30;100371.25;5072315;27;45463;-37
2022/11/21 02:39:32;;;;;;;;;4.75;3.25;;;;;11.13;61.24;100362.50;5075247;27;46500;-37
2022/11/21 02:42:25;;;;;;;;;5.00;2.00;;;;;11.14;61.21;100366.00;5058631;28;45410;-37
2022/11/21 02:45:05;;;;;;;;;5.50;3.75;;;;;11.14;61.25;100366.00;5063695;28;45564;-37
2022/11/21 02:47:31;;;;;;;;;6.25;2.00;;;;;11.13;61.11;100359.03;5077400;27;45934;-37
2022/11/21 02:50:03;;;;;;;;;3.00;3.00;;;;;11.11;61.30;100358.25;5070837;27;68138;-37
2022/11/21 02:52:28;;;;;;;;;4.00;3.00;;;;;11.11;61.27;100355.63;5078720;27;45334;-37
2022/11/21 02:54:54;;;;;;;;;5.50;3.00;;;;;11.10;61.03;100349.53;5073006;27;73503;-37
2022/11/21 02:57:19;;;;;;;;;6.50;1.25;;;;;11.10;61.43;100354.78;5069566;28;74064;-37
2022/11/21 02:59:44;;;;;;;;;4.75;3.00;;;;;11.11;61.40;100343.38;5078234;27;55162;-37
2022/11/21 03:02:10;;;;;;;;;4.00;2.00;;;;;11.11;61.25;100340.75;5073950;28;45189;-37
2022/11/21 03:04:35;;;;;;;;;6.25;3.00;;;;;11.13;61.25;100338.94;5072477;27;75294;-37
2022/11/21 03:07:00;;;;;;;;;3.00;2.00;;;;;11.14;61.15;100334.56;5073088;28;67085;-37
2022/11/21 03:09:26;;;;;;;;;3.00;2.75;;;;;11.11;61.12;100335.53;5079478;27;45645;-37
2022/11/21 03:11:51;;;;;;;;;7.50;3.00;;;;;11.11;61.04;100337.31;5067994;28;63431;-37
2022/11/21 03:14:16;;;;;;;;;6.00;2.00;;;;;11.08;61.05;100335.63;5078179;27;71196;-37
2022/11/21 03:16:42;;;;;;;;;3.75;2.00;;;;;11.07;61.35;100325.22;5074815;28;69185;-38
2022/11/21 03:19:07;;;;;;;;;6.25;4.00;;;;;11.06;61.28;100336.59;5080191;27;45275;-37
2022/11/21 03:21:32;;;;;;;;;4.50;2.75;;;;;11.06;61.57;100328.75;5078952;27;63532;-37
2022/11/21 03:23:58;;;;;;;;;4.25;3.00;;;;;11.08;61.42;100313.84;5070173;27;70958;-37
2022/11/21 03:26:23;;;;;;;;;7.25;3.00;;;;;11.07;61.38;100299.03;5078539;27;73197;-37
2022/11/21 03:28:48;;;;;;;;;6.50;2.00;;;;;11.06;61.40;100297.31;5082210;27;57573;-37
2022/11/21 03:31:13;;;;;;;;;10.75;2.25;;;;;11.05;61.59;100291.25;5073044;28;69371;-37
2022/11/21 03:33:39;;;;;;;;;4.00;2.50;;;;;11.05;61.39;100291.25;5077775;27;75993;-37
2022/11/21 03:36:04;;;;;;;;;7.50;4.25;;;;;11.04;61.37;100281.66;5067789;28;68247;-37
2022/11/21 03:38:30;;;;;;;;;5.50;3.00;;;;;11.04;61.14;100271.19;5078819;27;54554;-38
2022/11/21 03:40:55;;;;;;;;;5.00;3.50;;;;;11.02;61.61;100271.25;5086913;27;45536;-37
2022/11/21 03:43:21;;;;;;;;;5.75;3.50;;;;;11.02;61.37;100273.00;5070665;27;68929;-37
2022/11/21 03:45:46;;;;;;;;;5.75;4.00;;;;;11.04;61.06;100267.72;5071030;28;62674;-37
2022/11/21 03:48:13;;;;;;;;;6.25;3.00;;;;;11.01;61.34;100269.56;5078738;27;45646;-37
2022/11/21 03:50:41;;;;;;;;;4.00;2.75;;;;;11.01;61.67;100260.81;5073771;28;45824;-38
2022/11/21 03:53:07;;;;;;;;;7.50;3.25;;;;;11.02;61.33;100266.00;5078411;27;45279;-38
2022/11/21 03:55:32;;;;;;;;;8.50;4.00;;;;;11.02;61.45;100258.16;5073318;28;45295;-38
2022/11/21 03:57:57;;;;;;;;;6.50;4.00;;;;;11.05;61.68;100262.44;5073974;27;65584;-37
2022/11/21 04:00:23;;;;;;;;;4.00;3.50;;;;;11.08;61.71;100257.06;5076783;27;70679;-37
2022/11/21 04:02:48;;;;;;;;;3.25;3.25;;;;;11.11;61.11;100248.25;5080619;27;66833;-37
2022/11/21 04:05:13;;;;;;;;;6.25;3.25;;;;;11.13;61.26;100243.81;5071514;28;71786;-37
2022/11/21 04:07:39;;;;;;;;;7.50;4.75;;;;;11.15;61.30;100234.13;5077168;27;63362;-37
2022/11/21 04:10:04;;;;;;;;;3.75;2.00;;;;;11.17;61.31;100225.31;5077166;27;59447;-37
2022/11/21 04:12:30;;;;;;;;;8.50;6.00;;;;;11.20;61.44;100222.56;5092920;27;47759;-37
2022/11/21 04:14:55;;;;;;;;;4.50;3.25;;;;;11.20;61.36;100204.22;5079355;27;72992;-37
2022/11/21 04:17:20;;;;;;;;;4.50;4.00;;;;;11.21;61.30;100203.34;5076561;27;64184;-37
2022/11/21 04:19:45;;;;;;;;;5.00;3.00;;;;;11.21;61.24;100199.88;5070867;28;68703;-37
2022/11/21 04:22:11;;;;;;;;;4.00;4.00;;;;;11.17;61.04;100186.03;5081246;27;71566;-37
2022/11/21 04:24:51;;;;;;;;;4.25;4.25;;;;;11.14;61.42;100188.78;5076866;27;45342;-37
2022/11/21 04:27:17;;;;;;;;;4.50;3.00;;;;;11.12;61.06;100184.47;5074205;27;67592;-37
2022/11/21 04:29:42;;;;;;;;;4.25;3.75;;;;;11.09;61.00;100174.16;5079573;28;68532;-37
2022/11/21 04:32:07;;;;;;;;;4.00;3.75;;;;;11.09;61.16;100179.38;5061967;27;74702;-37
2022/11/21 04:34:33;;;;;;;;;7.50;3.75;;;;;11.11;60.97;100174.94;5081387;27;70661;-37
2022/11/21 04:36:58;;;;;;;;;8.00;3.75;;;;;11.09;61.23;100175.00;5079717;27;60255;-37
2022/11/21 04:39:23;;;;;;;;;3.50;3.50;;;;;11.08;60.86;100169.81;5077244;28;67686;-37
2022/11/21 04:41:49;;;;;;;;;5.50;5.00;;;;;11.07;61.17;100170.75;5081009;27;67190;-37
2022/11/21 04:44:14;;;;;;;;;8.75;4.00;;;;;11.05;61.02;100164.69;5076247;28;45214;-37
2022/11/21 04:46:39;;;;;;;;;5.00;4.25;;;;;11.06;61.03;100158.53;5079008;27;64553;-37
2022/11/21 04:49:04;;;;;;;;;7.75;5.00;;;;;11.03;60.94;100154.28;5077893;27;66530;-37
2022/11/21 04:51:30;;;;;;;;;6.50;4.00;;;;;11.01;60.93;100149.13;5081213;27;61258;-37
2022/11/21 04:53:55;;;;;;;;;5.00;4.25;;;;;10.98;61.10;100141.38;5081960;27;45252;-38
2022/11/21 04:56:20;;;;;;;;;9.25;6.25;;;;;10.97;61.37;100137.03;5080993;27;59163;-37
2022/11/21 04:58:46;;;;;;;;;5.50;4.00;;;;;10.96;61.16;100129.22;5077079;27;62777;-37
2022/11/21 05:01:11;;;;;;;;;7.75;4.00;;;;;10.96;61.07;100127.50;5077488;27;46073;-37
2022/11/21 05:03:36;;;;;;;;;3.25;3.00;;;;;10.93;61.26;100122.34;5072881;28;47543;-37
2022/11/21 05:06:02;;;;;;;;;7.75;4.75;;;;;10.96;61.36;100116.13;5079846;27;45414;-37
2022/11/21 05:08:27;;;;;;;;;7.75;6.00;;;;;10.93;61.24;100111.03;5076545;28;53057;-37
2022/11/21 05:13:36;;;;;;;;;5.00;4.00;;;;;10.86;61.19;100092.09;5074480;28;45332;-37
2022/11/21 05:16:02;;;;;;;;;7.50;4.00;;;;;10.86;61.53;100091.25;5075997;28;62791;-37
2022/11/21 05:18:27;;;;;;;;;8.50;5.25;;;;;10.81;61.39;100094.03;5078405;27;45437;-37
2022/11/21 05:20:53;;;;;;;;;15.00;5.25;;;;;10.76;61.06;100085.50;5075089;27;45490;-37
2022/11/21 05:23:18;;;;;;;;;8.75;7.00;;;;;10.74;61.49;100087.34;5079342;27;45278;-37
2022/11/21 05:25:43;;;;;;;;;7.00;6.25;;;;;10.72;61.42;100092.63;5081570;27;45327;-37
2022/11/21 05:28:08;;;;;;;;;7.50;5.25;;;;;10.71;61.92;100088.31;5077835;27;65115;-37
2022/11/21 05:30:34;;;;;;;;;9.75;6.75;;;;;10.72;61.65;100097.84;5079187;28;68406;-37
2022/11/21 05:32:59;;;;;;;;;10.00;7.00;;;;;10.74;61.42;100095.19;5074509;28;45327;-37
2022/11/21 05:35:25;;;;;;;;;11.75;6.00;;;;;10.74;61.51;100096.03;5080924;27;51572;-37
2022/11/21 05:37:57;;;;;;;;;9.50;3.00;;;;;10.72;61.37;100097.84;5080316;27;66034;-37
2022/11/21 05:40:23;;;;;;;;;9.00;4.25;;;;;10.73;61.84;100091.72;5076070;27;46058;-37
2022/11/21 05:45:32;;;;;;;;;8.25;4.75;;;;;10.74;61.92;100092.56;5074722;27;45310;-37
2022/11/21 05:47:58;;;;;;;;;8.75;5.25;;;;;10.74;61.82;100082.94;5072761;28;67122;-37
2022/11/21 05:50:23;;;;;;;;;8.75;5.75;;;;;10.76;61.75;100080.28;5080008;27;70921;-37
2022/11/21 05:52:48;;;;;;;;;9.00;5.50;;;;;10.79;61.58;100078.38;5085640;27;71055;-37
2022/11/21 05:55:14;;;;;;;;;14.75;5.50;;;;;10.77;61.61;100059.28;5069096;28;68189;-37
2022/11/21 05:57:39;;;;;;;;;8.50;6.00;;;;;10.80;61.69;100048.69;5076621;28;45359;-37
2022/11/21 06:00:05;;;;;;;;;12.25;5.50;;;;;10.80;61.52;100050.44;5074229;28;71048;-37
2022/11/21 06:05:14;;;;;;;;;9.00;6.00;;;;;10.76;61.43;100041.84;5079881;28;45321;-37
2022/11/21 06:07:39;;;;;;;;;6.25;4.75;;;;;10.75;61.77;100034.09;5079165;27;68688;-37
2022/11/21 06:10:05;;;;;;;;;9.00;4.25;;;;;10.74;61.85;100040.22;5074533;27;60942;-37
2022/11/21 06:12:30;;;;;;;;;6.00;4.75;;;;;10.70;61.67;100031.63;5080453;27;45371;-37
2022/11/21 06:14:56;;;;;;;;;8.25;4.50;;;;;10.69;61.90;100024.69;5079027;28;45261;-37
2022/11/21 06:17:21;;;;;;;;;8.50;5.50;;;;;10.72;61.62;100015.88;5079817;27;67617;-37
2022/11/21 06:19:46;;;;;;;;;15.25;6.75;;;;;10.74;62.01;100007.03;5087483;27;73650;-37
2022/11/21 06:22:11;;;;;;;;;13.25;4.75;;;;;10.76;61.69;99997.38;5073664;27;71653;-37
2022/11/21 06:24:37;;;;;;;;;7.75;6.00;;;;;10.77;61.94;99998.25;5072660;28;59625;-37
2022/11/21 06:27:02;;;;;;;;;14.75;7.25;;;;;10.79;61.64;99986.78;5080041;27;58874;-38
2022/11/21 06:29:27;;;;;;;;;8.50;6.50;;;;;10.80;61.76;99983.25;5077990;28;47708;-40
2022/11/21 06:31:54;;;;;;;;;11.50;9.00;;;;;10.82;61.43;99988.44;5076509;27;58405;-37
2022/11/21 06:34:20;;;;;;;;;10.75;5.25;;;;;10.79;61.86;99981.53;5080578;27;45350;-38
2022/11/21 06:36:45;;;;;;;;;9.75;6.25;;;;;10.80;61.87;99979.78;5079744;27;56729;-37
2022/11/21 06:39:10;;;;;;;;;13.00;7.25;;;;;10.75;61.63;99977.34;5079103;28;45288;-37
2022/11/21 06:41:36;;;;;;;;;16.25;7.25;;;;;10.73;61.63;99981.81;5073336;27;55767;-37
2022/11/21 06:44:01;;;;;;;;;8.75;7.25;;;;;10.72;61.70;99977.47;5068677;28;65235;-37
2022/11/21 06:46:26;;;;;;;;;7.50;4.50;;;;;10.74;61.78;99973.03;5075639;27;45324;-37
2022/11/21 06:48:52;;;;;;;;;7.75;6.50;;;;;10.74;61.57;99970.41;5081829;27;65550;-37
2022/11/21 06:51:20;;;;;;;;;11.75;7.00;;;;;10.75;61.86;99969.50;5079569;28;45337;-37
2022/11/21 06:53:47;;;;;;;;;10.50;8.00;;;;;10.78;61.67;99963.28;5067948;28;45435;-37
2022/11/21 06:56:13;;;;;;;;;9.00;6.75;;;;;10.77;61.67;99953.75;5074459;27;45490;-37
2022/11/21 06:58:39;;;;;;;;;9.00;7.75;;;;;10.79;61.91;99949.28;5080018;28;45146;-37
2022/11/21 07:01:09;;;;;;;;;10.50;7.50;;;;;10.77;61.70;99938.03;5073138;27;64187;-37
2022/11/21 07:03:35;;;;;;;;;12.50;9.00;;;;;10.78;61.61;99924.91;5079908;27;45393;-37
2022/11/21 07:06:01;;;;;;;;;13.50;8.00;;;;;10.79;61.58;99912.66;5074436;28;45436;-37
2022/11/21 07:08:27;;;;;;;;;12.50;8.75;;;;;10.77;61.64;99904.88;5073738;28;46152;-37
2022/11/21 07:10:53;;;;;;;;;19.50;10.00;;;;;10.76;61.45;99895.28;5080066;27;45444;-37
2022/11/21 07:13:21;;;;;;;;;14.75;10.00;;;;;10.74;61.67;99891.91;5068168;28;45318;-37
2022/11/21 07:15:47;;;;;;;;;16.75;10.00;;;;;10.72;61.60;99879.81;5078737;27;45446;-37
2022/11/21 07:18:13;;;;;;;;;14.00;10.50;;;;;10.70;61.67;99871.16;5073377;27;47920;-37
2022/11/21 07:20:39;;;;;;;;;12.25;10.00;;;;;10.73;61.86;99868.41;5071639;27;49234;-37
2022/11/21 07:23:05;;;;;;;;;17.00;12.25;;;;;10.75;61.48;99877.06;5064794;28;45249;-37
2022/11/21 07:25:31;;;;;;;;;16.25;10.75;;;;;10.73;61.74;99864.03;5079055;27;45417;-37
2022/11/21 07:28:00;;;;;;;;;10.00;8.25;;;;;10.72;61.71;99856.25;5075612;28;47220;-37
2022/11/21 07:30:26;;;;;;;;;18.00;11.25;;;;;10.73;61.62;99853.56;5073044;27;45287;-37
2022/11/21 07:33:00;;;;;;;;;20.75;11.75;;;;;10.72;61.54;99848.41;5078556;28;45350;-37
2022/11/21 07:35:26;;;;;;;;;19.50;12.75;;;;;10.71;61.71;99846.69;5079420;27;45337;-37
2022/11/21 07:37:51;;;;;;;;;12.50;10.25;;;;;10.70;61.63;99840.63;5078224;28;46179;-37
2022/11/21 07:40:17;;;;;;;;;21.75;12.25;;;;;10.66;61.41;99833.81;5069704;28;65059;-37
2022/11/21 07:42:42;;;;;;;;;15.75;10.00;;;;;10.62;61.26;99845.31;5073780;28;45281;-37
2022/11/21 07:45:08;;;;;;;;;18.50;11.00;;;;;10.58;61.08;99836.72;5073751;27;45314;-37
2022/11/21 07:47:34;;;;;;;;;14.75;11.25;;;;;10.54;61.60;99829.09;5079926;27;46356;-37
2022/11/21 07:49:59;;;;;;;;;18.00;13.00;;;;;10.51;61.26;99826.59;5072532;28;73132;-37
2022/11/21 07:52:24;;;;;;;;;17.75;11.75;;;;;10.48;61.42;99821.47;5071160;28;59148;-37
2022/11/21 07:54:50;;;;;;;;;20.50;10.50;;;;;10.49;61.57;99812.72;5078148;27;70945;-37
2022/11/21 07:57:15;;;;;;;;;17.75;11.00;;;;;10.48;61.17;99811.03;5083466;27;46523;-37
2022/11/21 07:59:41;;;;;;;;;17.75;11.50;;;;;10.44;61.61;99800.69;5072866;27;67663;-37
2022/11/21 08:02:06;;;;;;;;;17.25;13.00;;;;;10.38;61.21;99790.47;5069978;28;45362;-37
2022/11/21 08:04:32;;;;;;;;;21.50;16.25;;;;;10.35;61.51;99779.31;5072987;27;70491;-37
2022/11/21 08:06:57;;;;;;;;;18.50;15.00;;;;;10.32;61.61;99767.19;5069665;28;45921;-37
2022/11/21 08:09:26;;;;;;;;;18.25;16.00;;;;;10.34;61.42;99757.53;5073626;27;45277;-37
2022/11/21 08:11:52;;;;;;;;;21.25;14.50;;;;;10.29;61.46;99754.22;5075420;27;45900;-37
2022/11/21 08:14:17;;;;;;;;;19.00;15.00;;;;;10.23;61.30;99759.69;5059882;27;61218;-36
2022/11/21 08:16:42;;;;;;;;;25.25;17.25;;;;;10.08;61.86;99756.81;5083587;27;45377;-37
2022/11/21 08:19:08;;;;;;;;;20.00;16.25;;;;;10.03;62.08;99753.53;5069593;27;68828;-36
2022/11/21 08:21:33;;;;;;;;;14.00;14.00;;;;;10.02;62.22;99746.59;5074486;28;45481;-37
2022/11/21 08:23:58;;;;;;;;;19.50;13.25;;;;;10.02;61.97;99749.22;5072820;27;62566;-37
2022/11/21 08:26:24;;;;;;;;;24.25;13.25;;;;;10.04;62.29;99752.63;5077476;28;46536;-37
2022/11/21 08:28:49;;;;;;;;;23.50;14.50;;;;;10.05;62.01;99741.22;5072354;27;52581;-37
2022/11/21 08:31:14;;;;;;;;;22.00;14.00;;;;;10.08;62.09;99741.13;5082506;27;62489;-37
2022/11/21 08:33:40;;;;;;;;;16.50;13.50;;;;;10.11;62.04;99750.63;5081337;27;45443;-37
2022/11/21 08:36:06;;;;;;;;;20.25;14.75;;;;;10.16;62.25;99753.03;5079936;28;68142;-37
2022/11/21 08:38:32;;;;;;;;;15.25;12.25;;;;;10.19;62.00;99745.91;5073147;27;45370;-37
2022/11/21 08:43:41;;;;;;;;;16.50;13.00;;;;;10.23;62.00;99744.88;5079977;27;45414;-37
2022/11/21 08:46:07;;;;;;;;;18.75;15.50;;;;;10.27;62.17;99746.44;5071288;28;46583;-37
2022/11/21 08:48:32;;;;;;;;;23.50;17.25;;;;;10.29;61.96;99754.22;5073413;27;45577;-37
2022/11/21 08:50:58;;;;;;;;;21.50;15.00;;;;;10.31;62.27;99755.03;5077529;27;65328;-37
2022/11/21 08:53:23;;;;;;;;;14.50;10.25;;;;;10.34;62.14;99735.75;5076757;27;72996;-37
2022/11/21 08:55:48;;;;;;;;;17.50;13.50;;;;;10.38;61.98;99727.72;5075250;27;70541;-36
2022/11/21 08:58:14;;;;;;;;;17.00;14.00;;;;;10.38;62.25;99716.41;5072968;27;70770;-37
2022/11/21 09:00:39;;;;;;;;;19.25;14.50;;;;;10.36;61.99;99723.47;5077365;27;60036;-37
2022/11/21 09:03:05;;;;;;;;;17.00;11.00;;;;;10.35;61.84;99708.69;5077705;27;62374;-37
2022/11/21 09:05:31;;;;;;;;;20.75;15.00;;;;;10.33;61.96;99700.06;5075562;27;45374;-37
2022/11/21 09:07:57;;;;;;;;;14.00;13.00;;;;;10.26;62.34;99686.34;5081759;27;45362;-37
2022/11/21 09:10:24;;;;;;;;;16.50;12.50;;;;;10.25;62.00;99672.44;5081902;28;45460;-37
2022/11/21 09:12:49;;;;;;;;;19.50;14.00;;;;;10.24;62.17;99673.34;5072440;27;45437;-37
2022/11/21 09:18:02;;;;;;;;;21.50;11.50;;;;;10.24;62.11;99685.59;5081100;27;45461;-37
2022/11/21 09:20:27;;;;;;;;;28.25;13.50;;;;;10.24;62.37;99672.50;5081853;27;45482;-37
2022/11/21 09:22:53;;;;;;;;;18.75;12.25;;;;;10.24;62.31;99673.34;5090764;27;45367;-37
2022/11/21 09:25:18;;;;;;;;;13.75;10.25;;;;;10.24;62.36;99669.88;5074403;28;45991;-37
2022/11/21 09:27:43;;;;;;;;;16.25;13.50;;;;;10.26;62.39;99654.97;5078461;27;69223;-36
2022/11/21 09:30:09;;;;;;;;;15.75;13.25;;;;;10.29;62.46;99644.41;5072525;28;57252;-37
2022/11/21 09:32:35;;;;;;;;;12.00;9.00;;;;;10.29;62.80;99631.31;5081359;27;45402;-37
2022/11/21 09:35:01;;;;;;;;;16.00;10.50;;;;;10.29;62.35;99622.59;5074787;27;45397;-37
2022/11/21 09:37:26;;;;;;;;;14.25;12.75;;;;;10.30;62.48;99624.31;5068374;28;45376;-36
2022/11/21 09:39:51;;;;;;;;;16.00;13.50;;;;;10.28;62.35;99611.31;5067956;28;61773;-37
2022/11/21 09:42:58;;;;;;;;;15.75;8.50;;;;;10.23;62.13;99603.69;5066914;28;56136;-37
2022/11/21 09:45:43;;;;;;;;;14.75;10.75;;;;;10.23;62.51;99589.75;5072601;27;46707;-36
2022/11/21 09:48:16;;;;;;;;;17.00;12.00;;;;;10.21;62.55;99570.66;5075380;28;45939;-37
2022/11/21 09:50:55;;;;;;;;;19.50;13.00;;;;;10.23;62.69;99556.63;5075239;27;45409;-37
2022/11/21 09:53:31;;;;;;;;;13.25;10.25;;;;;10.27;62.52;99544.25;5074144;27;45248;-37
2022/11/21 09:56:10;;;;;;;;;16.00;12.25;;;;;10.32;62.41;99531.00;5078805;28;45734;-36
2022/11/21 09:58:39;;;;;;;;;13.75;11.75;;;;;10.37;62.54;99542.94;5079712;27;45588;-36
2022/11/21 10:01:05;;;;;;;;;14.25;9.50;;;;;10.40;62.28;99548.03;5074606;28;45647;-37
2022/11/21 10:03:41;;;;;;;;;11.50;6.50;;;;;10.45;62.44;99532.16;5079685;27;45348;-37
2022/11/21 10:06:20;;;;;;;;;17.00;13.50;;;;;10.44;62.08;99522.59;5074679;28;46319;-37
2022/11/21 10:08:54;;;;;;;;;16.25;11.25;;;;;10.47;62.25;99514.59;5075823;28;45314;-37
2022/11/21 10:11:26;;;;;;;;;12.00;9.25;;;;;10.48;62.24;99497.97;5079447;27;45282;-37
2022/11/21 10:14:01;;;;;;;;;17.25;12.00;;;;;10.49;62.05;99488.38;5058213;28;45284;-36
2022/11/21 10:16:32;;;;;;;;;10.00;8.50;;;;;10.49;62.03;99486.59;5071921;28;47335;-37
2022/11/21 10:19:13;;;;;;;;;15.00;8.00;;;;;10.52;62.35;99480.41;5072588;28;45832;-37
2022/11/21 10:21:54;;;;;;;;;11.75;8.00;;;;;10.53;62.15;99469.84;5077345;28;45241;-36
2022/11/21 10:24:39;;;;;;;;;14.25;9.75;;;;;10.52;61.96;99459.47;5070881;27;45275;-36
2022/11/21 10:27:26;;;;;;;;;15.50;9.00;;;;;10.53;62.14;99459.38;5074774;28;46094;-37
2022/11/21 10:29:58;;;;;;;;;13.75;8.25;;;;;10.53;62.12;99446.28;5070291;27;45877;-37
2022/11/21 10:32:31;;;;;;;;;10.00;7.00;;;;;10.52;61.98;99436.78;5079364;27;45319;-37
2022/11/21 10:35:13;;;;;;;;;14.25;7.00;;;;;10.53;62.15;99420.13;5080436;27;45445;-37
2022/11/21 10:37:44;;;;;;;;;7.50;6.25;;;;;10.55;61.90;99413.09;5100987;27;46329;-37
2022/11/21 10:40:34;;;;;;;;;10.50;7.00;;;;;10.60;61.95;99415.47;5077614;28;45373;-37
2022/11/21 10:45:14;;;;;;;;;11.00;6.50;;;;;10.62;61.84;99411.00;5072366;28;45371;-37
2022/11/21 10:45:52;;;;;;;;;8.75;7.50;;;;;10.65;62.00;99416.09;5077549;27;45736;-37
2022/11/21 10:48:17;;;;;;;;;5.50;5.00;;;;;10.67;61.78;99401.16;5071932;28;46113;-37
2022/11/21 10:50:58;;;;;;;;;9.75;7.00;;;;;10.67;61.92;99395.94;5079645;27;55075;-37
2022/11/21 10:56:14;;;;;;;;;10.75;10.00;;;;;10.75;61.76;99377.25;5076918;27;45319;-36
2022/11/21 10:58:49;;;;;;;;;15.00;7.25;;;;;10.79;61.81;99363.09;5078810;27;45386;-37
2022/11/21 11:01:21;;;;;;;;;12.50;7.00;;;;;10.82;61.87;99368.19;5073705;27;45433;-37
2022/11/21 11:03:46;;;;;;;;;9.25;5.25;;;;;10.85;61.30;99360.16;5078693;28;45324;-37
2022/11/21 11:06:12;;;;;;;;;12.00;7.00;;;;;10.87;61.20;99358.34;5077753;28;45331;-37
2022/11/21 11:08:55;;;;;;;;;11.50;7.25;;;;;10.88;61.07;99353.94;5074891;27;75609;-36
2022/11/21 11:11:22;;;;;;;;;17.75;11.75;;;;;10.90;61.33;99349.47;5078818;27;65976;-37
2022/11/21 11:14:04;;;;;;;;;7.00;5.75;;;;;10.91;61.17;99352.00;5074906;28;45448;-37
2022/11/21 11:16:31;;;;;;;;;12.00;7.00;;;;;10.92;61.60;99348.44;5077200;28;45520;-37
2022/11/21 11:19:04;;;;;;;;;11.00;8.50;;;;;10.99;61.42;99344.59;5078656;27;46195;-36
2022/11/21 11:21:43;;;;;;;;;9.50;6.00;;;;;11.04;60.83;99347.00;5074791;27;45977;-37
2022/11/21 11:24:08;;;;;;;;;13.50;6.00;;;;;11.04;60.87;99338.28;5077811;27;45460;-37
2022/11/21 11:26:33;;;;;;;;;7.33;4.00;;;;;11.02;60.90;99322.66;5077742;28;45441;-37
2022/11/21 11:29:14;;;;;;;;;11.00;7.50;;;;;11.05;60.90;99313.78;5077310;27;45324;-37
2022/11/21 11:31:40;;;;;;;;;11.00;6.00;;;;;11.08;60.74;99311.03;5073883;27;45850;-36
2022/11/21 11:34:11;;;;;;;;;10.50;6.00;;;;;11.07;60.65;99304.94;5085108;27;45327;-37
2022/11/21 11:36:43;;;;;;;;;7.75;5.75;;;;;11.08;60.65;99301.38;5078721;28;45516;-37
2022/11/21 11:39:36;;;;;;;;;12.50;6.75;;;;;11.08;60.43;99285.69;5091103;27;45622;-37
2022/11/21 11:47:50;;;;;;;;;7.50;2.75;;;;;11.12;60.96;99236.63;5078714;28;45520;-36
2022/11/21 11:50:21;;;;;;;;;8.75;5.00;;;;;11.07;60.76;99230.81;5075204;27;45208;-37